Forside
METAR-TAF:

METAR-TAF

Lufthavne :

South Bend Regional Airport

South Bend, Indiana, USA

Breddekreds: 41-42-32N, længdekreds: 086-19-07W, højde: 244 m

Aktuelle vejr

Denne rapport blev lavet for 1 time og 42 minutter siden, kl. 10:45 UTC
Vind stille
Temperatur 14°C
Fugtighed 94%
Tryk 1020 hPa
Sigt: 16.1 km
skyfri

METAR: KSBN 121045Z 00000KT 10SM CLR 14/13 A3011

Tid: 08:27 (12:27 UTC)

Vejrudsigter

Denne rapport blev lavet for 1 time og 7 minutter siden, kl. 11:20 UTC
Foreløbig gælder fra 12 på 12 UTC til 13 på 12 UTC
Vind 3 kt fra varierende retninger
Sigt: 10 km
Brudte skyer i en højde af 25000 ft
Fra 12 på 1500 UTC
Vind 6 kt fra østnordøst
Sigt: 10 km
Nogle få skyer i en højde af 25000 ft

TAF: KSBN 121120Z 1212/1312 VRB03KT P6SM BKN250 FM121500 07006KT P6SM FEW250

Vejrobservationer og prognoser fra mere end 4000 lufthavne (METAR og TAF).

De gule og røde prikker repræsenterer de meteorologiske stationer.

Flyt musen over at se navnet på stationen.

Så klik over at se vejr observationer og prognoser.

At skifte det kort: Klik på de grønne knapper med et sort kors for at zoome ind; på den grønne knap med en bindestreg for at zoome ud; eller på de grønne pile for tilstødende kort.


METAR-TAF: